LFBU/ANG METAR and TAF weather

Enter ICAO airport designator
Station Type Date Time Source
LFBU METAR 2019/04/24 22:30 UTC NOAA

LFBU 242230Z AUTO 16015KT 9999 -RA ///CB 11/09 Q1000


Station Type Date Time Source
LFBU Decoded METAR 2019/04/24 22:30 UTC NOAA

Station name not available
Apr 24, 2019 - 06:30 PM EDT / 2019.04.24 2230 UTC
Wind: from the SSE (160 degrees) at 17 MPH (15 KT):0
Visibility: greater than 7 mile(s):0
Weather: light rain; Cumulonimbus clouds observed
Temperature: 51 F (11 C)
Dew Point: 48 F (9 C)
Relative Humidity: 87%
Pressure (altimeter): 29.53 in. Hg (1000 hPa)
ob: LFBU 242230Z AUTO 16015KT 9999 -RA ///CB 11/09 Q1000
cycle: 22

Station Type Date Time Source
LFBU TAF 2019/04/24 21:00 UTC NOAA

TAF
AMD LFBU 242101Z 2421/2518 CNL

Example: see airport list